Forside
METAR-TAF:

METAR-TAF

Lufthavne :

Chièvres, Belgien

Breddekreds: 50-34N, længdekreds: 003-50E, højde: 60 m

Aktuelle vejr

Denne rapport blev lavet for 36 minutter siden, kl. 13:25 UTC
Vind 11 kt fra østnordøst
Temperatur 9°C
Fugtighed 49%
Tryk 1029 hPa
Sigt 10 km eller mere

METAR: EBCV 311325Z AUTO 06011KT 9999 FEW040/// 09/M01 Q1029 BLU

Tid: 16:01 (14:01 UTC)

Vejrudsigter

Denne rapport blev lavet for 2 timer og 20 minutter siden, kl. 11:41 UTC
Foreløbig gælder fra 31 på 13 UTC til 31 på 22 UTC
Vind 12 kt fra nordøst
Sigt 10 km eller mere
Nogle få skyer i en højde af 2500 ft
Spredte skyer i en højde af 3000 ft

TAF: EBCV 311141Z 3113/3122 05012KT 9999 FEW025 SCT030 BY EBWM

Vejrobservationer og prognoser fra mere end 4000 lufthavne (METAR og TAF).

De gule og røde prikker repræsenterer de meteorologiske stationer.

Flyt musen over at se navnet på stationen.

Så klik over at se vejr observationer og prognoser.

At skifte det kort: Klik på de grønne knapper med et sort kors for at zoome ind; på den grønne knap med en bindestreg for at zoome ud; eller på de grønne pile for tilstødende kort.


METAR-TAF: